^^

..:: Storico WU ::..




Lo storico viene creato da WUnderground con i dati che la stazione Meteomincio invia al loro server. L' aggiornamento viene fatto ogni 5 minuti circa, tuttavia possono esserci intervalli pi¨ ampi a causa di errori, interruzioni di servizio o problemi nell' invio tramite FTP.


Storico stazione MeteoMincio
Giorno Sommario per Giugno 09, 2022 Unità:  Inglese    Metrico   Entrambi
Giorno Settimana Mese Anno
  Max: Min: Media:
Temperatura: 79 °F 62.6 °F 69.1 °F
Dew Point: 64 °F 58.1 °F 61.3 °F
Umidità: 94% 53.1% 78%
Velocità vento: 15mph 0mph 2.5mph
Raffica: 31.1mph - -
Direzione- - SSW
Pressione: 29.9 in 29.7 in -
Precipitazioni: 0.57 in    
 
 
Tabulato Dati per Giugno 09, 2022
Ora Temperatura Dew Point Pressione Direzione Velocità vento Raffica Umidità Intensità pioggia (oraria) Info solare Situazione
00:04 64.6 °F 62.4 °F 29.7 in ENE 1.5 mph 3 mph 93% 0 in 0 W/m2
00:09 64.6 °F 62.8 °F 29.7 in ENE 1.9 mph 3.5 mph 93.5% 0 in 0 W/m2
00:14 64.6 °F 62.8 °F 29.7 in NNE 1.8 mph 3.5 mph 93.7% 0 in 0 W/m2
00:19 64.8 °F 63 °F 29.7 in ENE 1.8 mph 3.5 mph 94% 0 in 0 W/m2
00:24 64.6 °F 62.8 °F 29.7 in SE 1.9 mph 3.5 mph 94% 0 in 0 W/m2
00:29 64.6 °F 62.8 °F 29.7 in SE 1.9 mph 5 mph 94% 0 in 0 W/m2
00:34 64.4 °F 62.6 °F 29.7 in ESE 2.5 mph 5 mph 94% 0 in 0 W/m2
00:38 64.2 °F 62.4 °F 29.7 in SE 3.5 mph 5 mph 94% 0 in 0 W/m2
00:44 64.2 °F 62.4 °F 29.7 in SSE 2.9 mph 4.6 mph 94% 0 in 0 W/m2
00:49 64 °F 62.2 °F 29.7 in ESE 2.6 mph 5 mph 94% 0 in 0 W/m2
00:54 64.2 °F 62.4 °F 29.7 in ESE 2 mph 3.5 mph 94% 0 in 0 W/m2
00:58 64.2 °F 62.4 °F 29.7 in East 1.7 mph 3.5 mph 94% 0 in 0 W/m2
01:04 64.6 °F 62.8 °F 29.7 in NE 1.9 mph 3.5 mph 94% 0 in 0 W/m2
01:09 64.8 °F 63 °F 29.7 in NNE 1.6 mph 3.5 mph 94% 0 in 0 W/m2
01:14 64.9 °F 63.1 °F 29.7 in NNE 0.6 mph 3 mph 94% 0 in 0 W/m2
01:19 64.9 °F 63.1 °F 29.7 in NNE 0.2 mph 1.2 mph 94% 0 in 0 W/m2
01:24 64.8 °F 63 °F 29.7 in Calm   1 mph 94% 0 in 0 W/m2
01:29 64.8 °F 63 °F 29.7 in Calm   2 mph 94% 0 in 0 W/m2
01:34 64.8 °F 63 °F 29.7 in North 0.5 mph 2.3 mph 94% 0 in 0 W/m2
01:39 64.6 °F 62.8 °F 29.7 in North 0.4 mph 2.3 mph 94% 0 in 0 W/m2
01:43 64.6 °F 62.8 °F 29.7 in North 1.1 mph 3 mph 94% 0 in 0 W/m2
01:49 64.8 °F 63 °F 29.7 in North 2.6 mph 4 mph 94% 0 in 0 W/m2
01:54 64.8 °F 63 °F 29.7 in NNE 2.4 mph 4 mph 94% 0.01 in 0 W/m2
01:59 64.8 °F 63 °F 29.7 in NNE 1.9 mph 3.5 mph 94% 0.01 in 0 W/m2
02:04 64.8 °F 63 °F 29.7 in NNE 1.6 mph 3.5 mph 94% 0.01 in 0 W/m2
02:09 64.8 °F 63 °F 29.7 in NNE 1.4 mph 4 mph 94% 0.01 in 0 W/m2
02:14 64.9 °F 63.1 °F 29.7 in NE 2 mph 4 mph 94% 0.01 in 0 W/m2
02:19 64.9 °F 63.1 °F 29.7 in ENE 2.1 mph 3.5 mph 94% 0.01 in 0 W/m2
02:24 64.8 °F 63 °F 29.7 in ENE 2.2 mph 4 mph 94% 0.01 in 0 W/m2
02:29 64.8 °F 63 °F 29.7 in ENE 2.2 mph 4 mph 94% 0.01 in 0 W/m2
02:34 64.8 °F 63 °F 29.7 in ENE 1.2 mph 3.5 mph 94% 0.01 in 0 W/m2
02:39 64.9 °F 63.1 °F 29.7 in NNE 1.1 mph 3.5 mph 94% 0.01 in 0 W/m2
02:44 64.9 °F 63.1 °F 29.7 in North 1.6 mph 3.5 mph 94% 0.01 in 0 W/m2
02:49 65.1 °F 63.3 °F 29.7 in NNE 0.8 mph 3.5 mph 94% 0.06 in 0 W/m2
02:54 64.8 °F 63 °F 29.7 in ENE 1.8 mph 3.5 mph 94% 0.15 in 0 W/m2
02:59 64.6 °F 62.8 °F 29.7 in ENE 2.4 mph 7 mph 94% 0.26 in 0 W/m2
03:04 64.4 °F 62.6 °F 29.7 in ENE 4.9 mph 8.1 mph 94% 0.35 in 0 W/m2
03:09 64 °F 62.1 °F 29.7 in ENE 5 mph 8.1 mph 93.2% 0.42 in 0 W/m2
03:13 64 °F 61.9 °F 29.7 in ENE 3.7 mph 5.8 mph 93% 0.45 in 0 W/m2
03:18 64 °F 62.1 °F 29.7 in NE 3.5 mph 5 mph 93% 0.45 in 0 W/m2
03:24 64 °F 61.9 °F 29.7 in NE 3.4 mph 6 mph 92.7% 0.46 in 0 W/m2
03:29 63.9 °F 61.5 °F 29.7 in NE 3.9 mph 6 mph 92% 0.46 in 0 W/m2
03:34 63.9 °F 61.5 °F 29.7 in NE 4.4 mph 6 mph 92% 0.46 in 0 W/m2
03:39 63.9 °F 61.5 °F 29.7 in NE 3.8 mph 6 mph 92% 0.46 in 0 W/m2
03:44 63.7 °F 61.3 °F 29.7 in ENE 2.4 mph 6 mph 92% 0.46 in 0 W/m2
03:48 63.7 °F 61.2 °F 29.7 in ENE 1.7 mph 3.5 mph 92% 0.46 in 0 W/m2
03:54 63.7 °F 61 °F 29.7 in ENE 1.6 mph 3.5 mph 91% 0.46 in 0 W/m2
03:59 63.7 °F 61 °F 29.7 in ENE 1.5 mph 2.3 mph 91% 0.46 in 0 W/m2
04:03 63.7 °F 61.2 °F 29.7 in NE 1.3 mph 2.3 mph 91.9% 0.46 in 0 W/m2
04:08 63.7 °F 61.2 °F 29.7 in East 1.4 mph 3 mph 92% 0.46 in 0 W/m2
04:14 63.3 °F 61 °F 29.7 in East 1.8 mph 3.5 mph 92% 0.46 in 0 W/m2
04:18 63.3 °F 61 °F 29.7 in East 0.4 mph 3 mph 92% 0.46 in 0 W/m2
04:24 63.3 °F 61 °F 29.7 in East 0.6 mph 2.3 mph 92% 0.46 in 0 W/m2
04:28 63.5 °F 61.3 °F 29.7 in ESE 0.9 mph 2.3 mph 93% 0.46 in 0 W/m2
04:33 63.3 °F 61.2 °F 29.7 in SSE 1.6 mph 3 mph 93% 0.44 in 0 W/m2
04:39 63 °F 61 °F 29.7 in East 1.6 mph 3.5 mph 93% 0.39 in 0 W/m2
04:43 63.1 °F 61 °F 29.7 in ESE 1.1 mph 3 mph 93% 0.32 in 0 W/m2
04:49 63 °F 60.8 °F 29.7 in SSE 0.9 mph 2.3 mph 92.7% 0.3 in 0 W/m2
04:53 63 °F 60.6 °F 29.7 in SSE 1.2 mph 3 mph 92.4% 0.21 in 0 W/m2
04:57 63 °F 61 °F 29.7 in ESE 1 mph 3.5 mph 93% 0.19 in 0 W/m2
05:03 63.1 °F 61 °F 29.7 in ESE 1.2 mph 2.3 mph 93% 0.1 in 0 W/m2
05:09 63.1 °F 61 °F 29.7 in SSE 0.5 mph 2.3 mph 93% 0.06 in 0 W/m2
05:14 63.1 °F 61 °F 29.7 in SSW 0.6 mph 3 mph 93% 0.02 in 0 W/m2
05:19 63.1 °F 61 °F 29.7 in SSW 0.5 mph 2.3 mph 93% 0 in 0 W/m2
05:23 63.3 °F 61.2 °F 29.7 in SSW 0.2 mph 2.3 mph 93% 0 in 0 W/m2
05:28 63.5 °F 61.3 °F 29.7 in SSW 0.1 mph 2 mph 93% 0 in 0 W/m2
05:34 63.3 °F 61.3 °F 29.7 in Calm   1 mph 93% 0 in 0 W/m2
05:39 63.3 °F 61 °F 29.7 in Calm     92.6% 0 in 0 W/m2
05:44 63.3 °F 61.2 °F 29.7 in Calm     93% 0 in 0 W/m2
05:49 62.8 °F 60.8 °F 29.7 in Calm     93% 0 in 5 W/m2
05:54 62.8 °F 60.6 °F 29.7 in NNW 0.2 mph 3.5 mph 93% 0 in 5 W/m2
05:59 62.8 °F 60.6 °F 29.7 in NNW 0.9 mph 3.5 mph 93% 0 in 7 W/m2
06:03 62.8 °F 60.6 °F 29.7 in NNW 0.8 mph 3 mph 93% 0 in 7 W/m2
06:09 62.6 °F 60.6 °F 29.7 in NNW 0.7 mph 2.3 mph 93.5% 0 in 16 W/m2
06:14 62.8 °F 61 °F 29.7 in NNW 0.6 mph 2.3 mph 94% 0 in 18 W/m2
06:19 62.8 °F 61 °F 29.7 in NNW 0.2 mph 2.3 mph 94% 0 in 23 W/m2
06:23 62.8 °F 61 °F 29.7 in WNW 0.2 mph 2 mph 94% 0 in 39 W/m2
06:29 63 °F 61.2 °F 29.7 in WNW 0.9 mph 2.3 mph 94% 0 in 62 W/m2
06:34 63.1 °F 61.3 °F 29.7 in West 0.7 mph 2.3 mph 94% 0 in 77 W/m2
06:39 63.7 °F 61.7 °F 29.7 in WNW 1 mph 3.5 mph 93.8% 0 in 104 W/m2
06:44 64.2 °F 62.1 °F 29.7 in WNW 1.8 mph 3.5 mph 93% 0 in 127 W/m2
06:49 64.8 °F 62.4 °F 29.7 in NW 1.4 mph 3.5 mph 92.2% 0 in 139 W/m2
06:54 65.3 °F 62.6 °F 29.7 in NW 1.2 mph 2.3 mph 91.4% 0 in 141 W/m2
06:59 65.3 °F 62.4 °F 29.7 in WNW 0.9 mph 2.3 mph 90.3% 0 in 156 W/m2
07:04 65.7 °F 62.1 °F 29.7 in NW 0.6 mph 3 mph 88.1% 0 in 171 W/m2
07:09 65.8 °F 62.2 °F 29.7 in WNW 0.9 mph 4 mph 88.3% 0 in 192 W/m2
07:14 66.2 °F 62.4 °F 29.7 in WNW 2.1 mph 4 mph 88% 0 in 200 W/m2
07:19 66.4 °F 62.6 °F 29.7 in WNW 2.2 mph 3.5 mph 87.6% 0 in 204 W/m2
07:24 66.6 °F 63 °F 29.7 in WNW 1.8 mph 3.5 mph 88% 0 in 204 W/m2
07:29 66.7 °F 62.8 °F 29.7 in West 1.1 mph 3.5 mph 87.2% 0 in 211 W/m2
07:34 66.9 °F 62.6 °F 29.7 in WNW 0.9 mph 3 mph 86.1% 0 in 221 W/m2
07:39 67.5 °F 63.3 °F 29.7 in NW 0.5 mph 2.3 mph 86.8% 0 in 230 W/m2
07:44 67.3 °F 62.8 °F 29.7 in NW 0.1 mph 1.2 mph 85.6% 0 in 248 W/m2
07:49 67.5 °F 62.8 °F 29.7 in Calm   1.2 mph 84.9% 0 in 260 W/m2
07:54 67.8 °F 63 °F 29.7 in NNE 0.4 mph 1.2 mph 84.2% 0 in 271 W/m2
07:59 68 °F 62.2 °F 29.7 in NNE 0.4 mph 1.2 mph 82% 0 in 287 W/m2
08:04 68.2 °F 62.8 °F 29.7 in WSW 1.7 mph 3.5 mph 82.9% 0 in 299 W/m2
08:09 68.4 °F 62.8 °F 29.7 in SW 1.9 mph 3.5 mph 82.4% 0 in 313 W/m2
08:14 68.7 °F 62.8 °F 29.7 in SW 1.3 mph 3.5 mph 81.4% 0 in 323 W/m2
08:19 68.7 °F 62.4 °F 29.7 in WSW 0.7 mph 3 mph 80.2% 0 in 338 W/m2
08:23 69.3 °F 63 °F 29.7 in SSE 0.7 mph 3.5 mph 80.4% 0 in 352 W/m2
08:29 69.6 °F 63.5 °F 29.7 in SW 1.2 mph 4 mph 81.2% 0 in 369 W/m2
08:34 69.3 °F 62.8 °F 29.7 in SW 2.2 mph 4 mph 79.6% 0 in 381 W/m2
08:39 69.6 °F 63 °F 29.7 in SW 2.4 mph 4 mph 79.2% 0 in 394 W/m2
08:44 69.8 °F 63.5 °F 29.7 in West 2.5 mph 4 mph 80.2% 0 in 413 W/m2
08:49 69.6 °F 63.1 °F 29.7 in WSW 3 mph 5 mph 79.8% 0 in 424 W/m2
08:54 69.4 °F 62.8 °F 29.7 in WSW 2.5 mph 5 mph 79.4% 0 in 439 W/m2
08:59 69.6 °F 62.2 °F 29.7 in West 2.5 mph 5 mph 77.2% 0 in 457 W/m2
09:04 70 °F 62.8 °F 29.7 in SW 3.7 mph 6 mph 77.6% 0 in 475 W/m2
09:09 70 °F 62.8 °F 29.7 in WSW 2.7 mph 6 mph 77.8% 0 in 490 W/m2
09:14 70.2 °F 63.1 °F 29.7 in West 2.5 mph 6 mph 78.4% 0 in 503 W/m2
09:19 70.5 °F 62.8 °F 29.7 in West 2.1 mph 5 mph 76.7% 0 in 513 W/m2
09:24 70.3 °F 61.7 °F 29.7 in SW 2 mph 3.5 mph 73.9% 0 in 527 W/m2
09:29 70.9 °F 62.2 °F 29.7 in SW 1.1 mph 3.5 mph 74.5% 0 in 575 W/m2
09:34 71.2 °F 62.6 °F 29.7 in NW 0.4 mph 2 mph 74.1% 0 in 577 W/m2
09:39 71.8 °F 63 °F 29.7 in West 0.4 mph 4 mph 73.7% 0 in 598 W/m2
09:44 71.6 °F 62.4 °F 29.7 in WSW 2 mph 5 mph 73% 0 in 661 W/m2
09:49 71.4 °F 62.2 °F 29.7 in WSW 1.6 mph 5 mph 72.6% 0 in 703 W/m2
09:54 71.6 °F 62.4 °F 29.8 in SSW 1.6 mph 3.5 mph 73.2% 0 in 763 W/m2
09:59 71.8 °F 62.4 °F 29.8 in North 1.4 mph 4 mph 72.3% 0 in 373 W/m2
10:04 71.4 °F 61.7 °F 29.8 in WSW 1.3 mph 4 mph 71.3% 0 in 705 W/m2
10:09 72 °F 62.4 °F 29.8 in WSW 1.7 mph 4 mph 71.9% 0 in 705 W/m2
10:14 72 °F 62.1 °F 29.8 in WNW 2.1 mph 4 mph 71% 0 in 696 W/m2
10:19 72.5 °F 62.2 °F 29.8 in WSW 1.6 mph 5 mph 70% 0 in 691 W/m2
10:24 72.5 °F 61.9 °F 29.8 in WSW 2.4 mph 5 mph 69.2% 0 in 694 W/m2
10:29 73 °F 62.2 °F 29.7 in West 1.5 mph 5 mph 69.3% 0 in 708 W/m2
10:34 72.9 °F 61.5 °F 29.7 in SSW 2.8 mph 5 mph 68% 0 in 722 W/m2
10:39 72.7 °F 61.2 °F 29.7 in SW 4.2 mph 5 mph 67.4% 0 in 742 W/m2
10:44 73 °F 62.6 °F 29.7 in WSW 3.5 mph 7 mph 69.6% 0 in 742 W/m2
10:49 73.4 °F 62.2 °F 29.7 in SW 4.1 mph 7 mph 68.3% 0 in 733 W/m2
10:54 73.2 °F 61.9 °F 29.7 in SSW 3.3 mph 7 mph 67.7% 0 in 742 W/m2
10:59 73.4 °F 62.2 °F 29.7 in SW 2.8 mph 6 mph 68.1% 0 in 742 W/m2
11:04 73 °F 61.2 °F 29.7 in WSW 2.5 mph 7 mph 66.3% 0 in 740 W/m2
11:09 73 °F 61.7 °F 29.7 in SE 1.9 mph 6 mph 67.7% 0 in 772 W/m2
11:14 73.9 °F 62.2 °F 29.7 in SSW 2.2 mph 7 mph 67% 0 in 789 W/m2
11:19 74.5 °F 62.2 °F 29.7 in SSW 3.6 mph 7 mph 65.6% 0 in 881 W/m2
11:24 74.5 °F 61.7 °F 29.7 in SSW 4.4 mph 7 mph 64.2% 0 in 881 W/m2
11:29 73.9 °F 61.7 °F 29.8 in SW 3.9 mph 7 mph 65.4% 0 in 555 W/m2
11:34 74.3 °F 61.5 °F 29.8 in West 4.2 mph 7 mph 64.4% 0 in 909 W/m2
11:39 75.2 °F 61.5 °F 29.8 in NW 2.9 mph 7 mph 62.6% 0 in 932 W/m2
11:44 74.8 °F 60.4 °F 29.8 in West 3 mph 6 mph 61.1% 0 in 932 W/m2
11:49 73.9 °F 59.7 °F 29.8 in NW 2.7 mph 4 mph 61% 0 in 896 W/m2
11:54 75.2 °F 61 °F 29.8 in WNW 2.7 mph 4 mph 61.6% 0 in 905 W/m2
11:59 75.4 °F 61 °F 29.8 in WNW 2.2 mph 5 mph 61.2% 0 in 874 W/m2
12:04 75.2 °F 60.1 °F 29.7 in SW 2.9 mph 6 mph 59.6% 0 in 874 W/m2
12:09 75.2 °F 60.4 °F 29.7 in West 3.5 mph 7 mph 60.2% 0 in 874 W/m2
12:14 76.1 °F 60.8 °F 29.7 in NNW 3 mph 7 mph 58.9% 0 in 877 W/m2
12:19 76.5 °F 59.7 °F 29.7 in NNW 1.9 mph 7 mph 56.3% 0 in 912 W/m2
12:24 76.5 °F 60.6 °F 29.7 in West 1.1 mph 4 mph 58.4% 0 in 947 W/m2
12:29 76.8 °F 60.4 °F 29.7 in ENE 3.2 mph 7 mph 57.3% 0 in 965 W/m2
12:34 76.8 °F 60.3 °F 29.7 in ESE 4 mph 7 mph 56.7% 0 in 947 W/m2
12:39 76.3 °F 60.6 °F 29.7 in South 2.1 mph 7 mph 58.4% 0 in 972 W/m2
12:44 77 °F 62.1 °F 29.7 in WNW 1.7 mph 4 mph 59.9% 0 in 1014 W/m2
12:49 77.2 °F 60.8 °F 29.7 in WNW 2.8 mph 7 mph 57.2% 0 in 963 W/m2
12:54 76.6 °F 60.4 °F 29.7 in WNW 3.7 mph 7 mph 57.4% 0 in 963 W/m2
12:59 77 °F 62.4 °F 29.7 in North 2.9 mph 7 mph 60.7% 0 in 933 W/m2
13:04 77.4 °F 61.3 °F 29.7 in NNW 2.4 mph 6 mph 57.9% 0 in 944 W/m2
13:09 77.2 °F 61.7 °F 29.7 in North 1.6 mph 6 mph 58.8% 0 in 972 W/m2
13:14 77.5 °F 62.2 °F 29.7 in WSW 3 mph 6 mph 59.3% 0 in 1020 W/m2
13:19 77.5 °F 61.7 °F 29.7 in WSW 3.1 mph 6 mph 58.2% 0 in 1014 W/m2
13:24 76.6 °F 61.2 °F 29.7 in West 2.3 mph 5 mph 59% 0 in 951 W/m2
13:29 77.4 °F 61.9 °F 29.7 in WNW 2.4 mph 7 mph 59.2% 0 in 962 W/m2
13:34 78.4 °F 61.7 °F 29.7 in WNW 2.5 mph 7 mph 56.6% 0 in 974 W/m2
13:39 78.6 °F 62.2 °F 29.7 in West 1.4 mph 7 mph 57.2% 0 in 972 W/m2
13:44 78.8 °F 63 °F 29.7 in WSW 3.3 mph 7 mph 58.4% 0 in 1002 W/m2
13:49 79 °F 61.9 °F 29.7 in West 4.6 mph 7 mph 56.1% 0 in 1099 W/m2
13:54 78.3 °F 60.8 °F 29.7 in SSW 3.9 mph 7 mph 55.2% 0 in 1099 W/m2
13:59 78.8 °F 62.1 °F 29.7 in SSW 3.5 mph 6 mph 56.7% 0 in 1037 W/m2
14:04 78.6 °F 60.6 °F 29.7 in SW 4.6 mph 7 mph 54% 0 in 1044 W/m2
14:09 79 °F 60.6 °F 29.7 in WSW 5.2 mph 7 mph 53.6% 0 in 1058 W/m2
14:14 78.4 °F 59.9 °F 29.7 in SW 2.8 mph 7 mph 53.1% 0 in 1144 W/m2
14:19 78.3 °F 61.2 °F 29.7 in SW 2.5 mph 9.2 mph 56% 0 in 1144 W/m2
14:24 77.7 °F 60.4 °F 29.7 in NW 4.2 mph 9.2 mph 55.5% 0 in 294 W/m2
14:26 77.5 °F 61.5 °F 29.7 in NNW 3.4 mph 9 mph 57.9% 0 in 151 W/m2
14:34 77.4 °F 61.7 °F 29.7 in NW 3.5 mph 10 mph 58.6% 0 in 151 W/m2
14:39 76.6 °F 61.3 °F 29.7 in NW 5.6 mph 10.4 mph 59.3% 0 in 127 W/m2
14:44 76.5 °F 61.2 °F 29.7 in NW 5.3 mph 10.4 mph 59.2% 0 in 169 W/m2
14:49 76.6 °F 61.9 °F 29.7 in WNW 2.7 mph 10 mph 60.3% 0 in 192 W/m2
14:54 76.3 °F 61.9 °F 29.7 in West 2.5 mph 7 mph 60.9% 0 in 200 W/m2
14:59 76.1 °F 61.5 °F 29.7 in WSW 1.7 mph 4 mph 60.4% 0 in 230 W/m2
15:04 75.9 °F 61.2 °F 29.7 in West 1.6 mph 4 mph 60.4% 0 in 232 W/m2
15:09 75.9 °F 61.2 °F 29.7 in WSW 2 mph 4 mph 60.4% 0 in 230 W/m2
15:14 75.9 °F 61 °F 29.7 in WSW 2.2 mph 3.5 mph 60% 0 in 197 W/m2
15:19 75.7 °F 61.2 °F 29.7 in WSW 2.4 mph 4 mph 60.4% 0 in 155 W/m2
15:24 75.7 °F 61 °F 29.7 in WSW 2 mph 4 mph 60.3% 0 in 142 W/m2
15:29 75.4 °F 62.6 °F 29.7 in South 1.7 mph 5 mph 64.6% 0 in 137 W/m2
15:34 74.3 °F 64 °F 29.7 in SE 3.2 mph 5 mph 70.3% 0 in 120 W/m2
15:39 72.7 °F 63.9 °F 29.7 in ESE 3.5 mph 8 mph 74% 0 in 91 W/m2
15:44 70.5 °F 61.3 °F 29.8 in ENE 9 mph 31.1 mph 72.8% 0.01 in 65 W/m2
15:49 66.6 °F 58.5 °F 29.8 in SSE 15 mph 31.1 mph 75.4% 0.02 in 76 W/m2
15:53 65.5 °F 59.2 °F 29.8 in SSW 9.1 mph 31 mph 79.8% 0.02 in 120 W/m2
15:59 65.1 °F 58.8 °F 29.7 in SSW 4.7 mph 16 mph 80.1% 0.02 in 158 W/m2
16:04 65.3 °F 59.5 °F 29.7 in SSW 3 mph 12 mph 81.6% 0.02 in 156 W/m2
16:09 65.3 °F 60.4 °F 29.7 in SSW 3.5 mph 5 mph 84.2% 0.02 in 156 W/m2
16:14 65.8 °F 61 °F 29.7 in South 3.6 mph 6 mph 84.7% 0.02 in 209 W/m2
16:19 66.2 °F 61 °F 29.7 in South 3.5 mph 6 mph 83.4% 0.02 in 209 W/m2
16:24 66.7 °F 61.2 °F 29.7 in SSE 4 mph 6 mph 82.3% 0.02 in 169 W/m2
16:29 67.3 °F 62.4 °F 29.8 in SE 3.1 mph 8 mph 84.4% 0.02 in 211 W/m2
16:34 67.3 °F 61.9 °F 29.8 in SSE 3.9 mph 9.2 mph 82.9% 0.02 in 278 W/m2
16:39 67.8 °F 61.5 °F 29.8 in SSE 2.9 mph 9.2 mph 80.2% 0.02 in 278 W/m2
16:44 68.2 °F 61.7 °F 29.8 in South 4 mph 9.2 mph 79.8% 0.03 in 169 W/m2
16:49 68.2 °F 61.9 °F 29.8 in SE 4.8 mph 9 mph 80.5% 0.03 in 174 W/m2
16:54 68.4 °F 62.4 °F 29.8 in SSE 3.8 mph 8.1 mph 81% 0.03 in 239 W/m2
16:59 69.1 °F 62.4 °F 29.8 in SSE 4.3 mph 8.1 mph 79.4% 0.03 in 239 W/m2
17:04 69.1 °F 61.9 °F 29.8 in SE 4.8 mph 8.1 mph 78.1% 0.02 in 178 W/m2
17:09 69.1 °F 61.7 °F 29.8 in SE 5 mph 8.1 mph 77.5% 0.02 in 102 W/m2
17:14 68.9 °F 61.3 °F 29.8 in SE 4.2 mph 8.1 mph 77% 0.02 in 171 W/m2
17:19 69.1 °F 61.9 °F 29.8 in SE 4.2 mph 7 mph 77.9% 0.02 in 258 W/m2
17:24 70 °F 61.9 °F 29.8 in SE 3.6 mph 5.8 mph 75.7% 0.02 in 615 W/m2
17:29 70.5 °F 61.3 °F 29.8 in SSE 4.2 mph 9 mph 72.8% 0.01 in 274 W/m2
17:34 70.3 °F 60.8 °F 29.8 in SSE 4.3 mph 9 mph 72.1% 0.02 in 167 W/m2
17:39 70.2 °F 61.3 °F 29.8 in South 4.1 mph 8 mph 73.4% 0.02 in 350 W/m2
17:44 70.3 °F 61 °F 29.8 in SSW 5.3 mph 8.1 mph 72% 0.02 in 302 W/m2
17:49 70.7 °F 61 °F 29.8 in South 5.4 mph 8 mph 71.2% 0.02 in 621 W/m2
17:54 71.4 °F 60.8 °F 29.8 in SSW 4.9 mph 7 mph 69% 0.02 in 621 W/m2
17:59 72 °F 59.7 °F 29.8 in SSW 3.8 mph 7 mph 65.6% 0.02 in 359 W/m2
18:04 71.8 °F 60.8 °F 29.8 in SSW 2.4 mph 7 mph 68.1% 0.01 in 264 W/m2
18:09 71.8 °F 60.6 °F 29.8 in South 2.2 mph 6 mph 67.7% 0.01 in 308 W/m2
18:14 71.8 °F 60.1 °F 29.8 in SE 2.5 mph 5.8 mph 67% 0.01 in 243 W/m2
18:19 71.8 °F 60.3 °F 29.8 in South 2.9 mph 6 mph 66.9% 0.01 in 394 W/m2
18:24 72 °F 60.1 °F 29.8 in South 3.4 mph 6 mph 66.3% 0.02 in 294 W/m2
18:29 72 °F 60.8 °F 29.8 in SSE 3.2 mph 8 mph 67.9% 0.02 in 220 W/m2
18:34 72 °F 59.7 °F 29.8 in South 3.8 mph 8.1 mph 65.3% 0.02 in 192 W/m2
18:39 72.1 °F 60.1 °F 29.8 in SSW 4.9 mph 8.1 mph 65.9% 0.02 in 213 W/m2
18:44 72.3 °F 60.1 °F 29.8 in South 4.1 mph 8 mph 65.4% 0.02 in 399 W/m2
18:49 73 °F 60.8 °F 29.8 in SSW 2.2 mph 7 mph 66% 0.02 in 399 W/m2
18:54 73.2 °F 60.4 °F 29.8 in SSW 2.9 mph 7 mph 64.5% 0.01 in 338 W/m2
18:59 73 °F 60.1 °F 29.8 in South 4.8 mph 10.4 mph 63.6% 0.01 in 171 W/m2
19:04 72.9 °F 60.4 °F 29.8 in SSE 1.8 mph 10.4 mph 65.2% 0.01 in 156 W/m2
19:09 72.5 °F 60.4 °F 29.8 in SSE 1.6 mph 3.5 mph 65.8% 0.01 in 232 W/m2
19:13 72.5 °F 60.3 °F 29.8 in SSE 1.8 mph 3.5 mph 65.5% 0.01 in 195 W/m2
19:18 72.3 °F 60.6 °F 29.8 in South 2.1 mph 3.5 mph 66.5% 0.02 in 232 W/m2
19:24 72 °F 60.4 °F 29.8 in South 2.7 mph 5 mph 67.3% 0.02 in 51 W/m2
19:29 71.4 °F 60.6 °F 29.8 in SSW 3.5 mph 5 mph 68.6% 0.02 in 54 W/m2
19:34 71.2 °F 60.8 °F 29.8 in SSW 3.2 mph 5 mph 69.6% 0.02 in 107 W/m2
19:39 71.2 °F 61.2 °F 29.8 in SW 2.6 mph 5 mph 70.8% 0.02 in 107 W/m2
19:44 71.2 °F 61.7 °F 29.8 in SW 2.1 mph 5 mph 72% 0.02 in 169 W/m2
19:49 71.4 °F 61.5 °F 29.8 in SSW 2.6 mph 4 mph 71.1% 0.01 in 165 W/m2
19:54 71.8 °F 61.9 °F 29.8 in SW 2.9 mph 4 mph 71% 0.01 in 141 W/m2
19:59 71.8 °F 61.9 °F 29.8 in SW 2.7 mph 5 mph 70.8% 0.01 in 135 W/m2
20:04 72 °F 61.5 °F 29.8 in SW 3.2 mph 5 mph 69.9% 0.01 in 118 W/m2
20:09 71.8 °F 61.5 °F 29.8 in SW 3 mph 5 mph 69.8% 0.01 in 102 W/m2
20:14 71.6 °F 61.3 °F 29.8 in SW 2.7 mph 5 mph 69.8% 0.01 in 62 W/m2
20:19 71.6 °F 60.8 °F 29.8 in SW 2.9 mph 5 mph 68.8% 0.01 in 60 W/m2
20:24 71.6 °F 60.6 °F 29.8 in SW 2.8 mph 5 mph 68.4% 0.01 in 58 W/m2
20:29 71.6 °F 60.6 °F 29.8 in SW 2.8 mph 4 mph 68.6% 0.01 in 54 W/m2
20:34 71.4 °F 60.4 °F 29.8 in SW 3.2 mph 4 mph 68.3% 0.02 in 40 W/m2
20:39 71.4 °F 60.6 °F 29.8 in SW 3 mph 4 mph 68.8% 0.01 in 33 W/m2
20:44 71.1 °F 60.3 °F 29.8 in SW 3.4 mph 6 mph 68.5% 0.01 in 23 W/m2
20:49 70.9 °F 60.1 °F 29.8 in SW 2.9 mph 6 mph 68.9% 0.01 in 19 W/m2
20:54 70.5 °F 60.4 °F 29.8 in SW 1.8 mph 6 mph 70.6% 0.01 in 16 W/m2
20:59 70.3 °F 60.3 °F 29.8 in SW 2.2 mph 3.5 mph 70.5% 0.01 in 11 W/m2
21:04 70 °F 59.9 °F 29.8 in WSW 3 mph 6 mph 70.3% 0.01 in 7 W/m2
21:09 69.8 °F 59.7 °F 29.8 in WSW 3.7 mph 6 mph 70.6% 0.01 in 0 W/m2
21:14 69.3 °F 59.9 °F 29.8 in WSW 3 mph 6 mph 72.4% 0.01 in 0 W/m2
21:18 68.9 °F 60.1 °F 29.8 in WSW 2.3 mph 4 mph 73.6% 0.01 in 0 W/m2
21:24 68.5 °F 60.3 °F 29.8 in West 2.2 mph 3.5 mph 75% 0.01 in 0 W/m2
21:29 68.2 °F 60.3 °F 29.8 in WNW 1.3 mph 3.5 mph 75.6% 0.01 in 0 W/m2
21:34 68 °F 60.3 °F 29.8 in West 1.6 mph 3.5 mph 76% 0.01 in 0 W/m2
21:39 67.8 °F 60.1 °F 29.8 in WNW 2.3 mph 3.5 mph 75.8% 0.01 in 0 W/m2
21:44 67.8 °F 60.1 °F 29.8 in WNW 2.9 mph 5 mph 76% 0.01 in 0 W/m2
21:49 67.5 °F 59.9 °F 29.8 in West 3 mph 5 mph 76.5% 0.01 in 0 W/m2
21:54 67.1 °F 59.9 °F 29.8 in WNW 1.5 mph 5 mph 77.6% 0 in 0 W/m2
21:59 66.7 °F 59.7 °F 29.8 in WNW 2.8 mph 6 mph 78% 0 in 0 W/m2
22:04 66.7 °F 59.5 °F 29.8 in WNW 4.2 mph 6 mph 78% 0.01 in 0 W/m2
22:09 66.4 °F 59.4 °F 29.8 in West 2.9 mph 6 mph 78% 0.01 in 0 W/m2
22:14 66.2 °F 59.2 °F 29.8 in WNW 2.7 mph 4 mph 78.2% 0.01 in 0 W/m2
22:19 66 °F 59 °F 29.8 in WNW 2.4 mph 4 mph 78.3% 0.01 in 0 W/m2
22:24 66 °F 58.8 °F 29.8 in WNW 2.5 mph 4 mph 78% 0.01 in 0 W/m2
22:29 65.8 °F 58.8 °F 29.8 in WNW 3.1 mph 4 mph 78% 0.02 in 0 W/m2
22:34 65.7 °F 58.6 °F 29.8 in WNW 2.9 mph 4 mph 78% 0.02 in 0 W/m2
22:39 65.5 °F 58.8 °F 29.8 in WNW 2.9 mph 5 mph 79% 0.02 in 0 W/m2
22:44 65.3 °F 58.6 °F 29.8 in WNW 3.7 mph 5 mph 79% 0.02 in 0 W/m2
22:49 65.1 °F 58.6 °F 29.8 in NW 3.3 mph 5 mph 79.4% 0.02 in 0 W/m2
22:54 64.9 °F 58.5 °F 29.8 in WNW 3.8 mph 5 mph 79.3% 0.02 in 0 W/m2
22:59 64.9 °F 58.3 °F 29.8 in NW 3.7 mph 5 mph 79% 0.02 in 0 W/m2
23:04 64.9 °F 58.1 °F 29.8 in NW 3 mph 5 mph 79% 0.02 in 0 W/m2
23:09 64.9 °F 58.1 °F 29.8 in NW 3.2 mph 6 mph 78.5% 0.02 in 0 W/m2
23:14 65.1 °F 58.1 °F 29.9 in NW 3.7 mph 6 mph 78% 0.02 in 0 W/m2
23:19 65.1 °F 58.1 °F 29.9 in NW 3.7 mph 8.1 mph 78% 0.02 in 0 W/m2
23:24 65.1 °F 58.3 °F 29.9 in NW 3.4 mph 8.1 mph 78.7% 0.02 in 0 W/m2
23:29 64.9 °F 58.3 °F 29.9 in NW 2.1 mph 8 mph 79% 0.02 in 0 W/m2
23:34 65.1 °F 58.3 °F 29.9 in NW 2.1 mph 3.5 mph 79% 0.02 in 0 W/m2
23:39 65.3 °F 58.6 °F 29.9 in NW 2.5 mph 4 mph 79% 0.02 in 0 W/m2
23:44 65.5 °F 58.5 °F 29.9 in NW 2.8 mph 4 mph 78.2% 0.02 in 0 W/m2
23:49 65.7 °F 58.3 °F 29.9 in NW 3 mph 4 mph 77% 0.02 in 0 W/m2
23:54 65.7 °F 58.6 °F 29.9 in NW 2.5 mph 5 mph 78% 0.02 in 0 W/m2
23:59 65.7 °F 58.3 °F 29.9 in NW 3.1 mph 6 mph 77% 0.02 in 0 W/m2
Stazione Meteorologica MeteoMincio Rivalta s/M (MN)
Con i complimenti di Weather Underground - 4 mb


METEO PILLOLE
Tornado simultanei negli USA
Valle dell'Ohio
Il 3 e 4 aprile 1974, una perturbazione dissemina oltre 125 tornado dall'indiana alla Georgia settentrionale. Quasi un quarto di essi è considerato di grande potenza distruttiva.

Do NOT follow this link or you will be banned from the site!